Terminal Aerodrome Forecast
Issued by NWS

Home | Current Version | Previous Version | Text Only | Print | Product List | Glossary On
Versions: 1 2 3 4 5 6 7 8 9 10 11 12
000
FTUS41 KRNK 271120
TAFLWB
TAF
KLWB 271120Z 2712/2812 28004KT P6SM BKN070
     FM271400 29007KT P6SM VCSH SCT050 BKN070
     FM271800 30010G19KT P6SM FEW050 SCT070
     FM272200 30007KT P6SM FEW050 FEW250
     FM280200 VRB03KT P6SM SKC=

USA.gov is the U.S. government's official web portal to all federal, state and local government web resources and services.